sensor_id;sensor_type;location;lat;lon;timestamp;pressure;altitude;pressure_sealevel;temperature;humidity
65997;BME280;52765;52.258;21.052;2023-05-09T00:02:01;101970.13;;;8.32;81.07
65997;BME280;52765;52.258;21.052;2023-05-09T00:04:27;101971.22;;;8.30;81.30
65997;BME280;52765;52.258;21.052;2023-05-09T00:06:53;101972.06;;;8.30;81.09
65997;BME280;52765;52.258;21.052;2023-05-09T00:09:18;101974.00;;;8.28;80.82
65997;BME280;52765;52.258;21.052;2023-05-09T00:11:44;101960.31;;;8.19;80.36
65997;BME280;52765;52.258;21.052;2023-05-09T00:14:09;101967.16;;;8.10;80.81
65997;BME280;52765;52.258;21.052;2023-05-09T00:16:36;101959.59;;;8.02;80.71
65997;BME280;52765;52.258;21.052;2023-05-09T00:19:02;101967.00;;;7.99;81.54
65997;BME280;52765;52.258;21.052;2023-05-09T00:21:28;101958.31;;;7.95;82.59
65997;BME280;52765;52.258;21.052;2023-05-09T00:23:54;101962.81;;;7.94;82.02
65997;BME280;52765;52.258;21.052;2023-05-09T00:26:21;101961.19;;;7.92;82.24
65997;BME280;52765;52.258;21.052;2023-05-09T00:28:47;101957.56;;;7.93;82.45
65997;BME280;52765;52.258;21.052;2023-05-09T00:31:12;101954.97;;;7.91;82.21
65997;BME280;52765;52.258;21.052;2023-05-09T00:33:37;101945.56;;;7.84;82.58
65997;BME280;52765;52.258;21.052;2023-05-09T00:36:03;101953.63;;;7.84;83.20
65997;BME280;52765;52.258;21.052;2023-05-09T00:38:29;101955.16;;;7.88;83.20
65997;BME280;52765;52.258;21.052;2023-05-09T00:40:54;101954.75;;;7.94;83.19
65997;BME280;52765;52.258;21.052;2023-05-09T00:43:20;101956.66;;;7.92;83.26
65997;BME280;52765;52.258;21.052;2023-05-09T00:45:47;101955.91;;;7.90;83.07
65997;BME280;52765;52.258;21.052;2023-05-09T00:48:14;101951.72;;;7.86;83.67
65997;BME280;52765;52.258;21.052;2023-05-09T00:50:40;101945.28;;;7.89;82.48
65997;BME280;52765;52.258;21.052;2023-05-09T00:53:05;101956.09;;;7.87;81.39
65997;BME280;52765;52.258;21.052;2023-05-09T00:55:32;101954.41;;;7.86;80.28
65997;BME280;52765;52.258;21.052;2023-05-09T00:57:57;101954.59;;;7.83;79.55
65997;BME280;52765;52.258;21.052;2023-05-09T01:00:22;101956.72;;;7.78;79.53
65997;BME280;52765;52.258;21.052;2023-05-09T01:02:51;101948.13;;;7.73;79.96
65997;BME280;52765;52.258;21.052;2023-05-09T01:05:18;101956.06;;;7.74;80.15
65997;BME280;52765;52.258;21.052;2023-05-09T01:07:59;101947.78;;;7.77;79.00
65997;BME280;52765;52.258;21.052;2023-05-09T01:10:47;101954.53;;;7.70;78.93
65997;BME280;52765;52.258;21.052;2023-05-09T01:13:26;101955.38;;;7.71;78.42
65997;BME280;52765;52.258;21.052;2023-05-09T01:18:39;101956.94;;;7.60;79.08
65997;BME280;52765;52.258;21.052;2023-05-09T01:21:14;101951.66;;;7.59;79.04
65997;BME280;52765;52.258;21.052;2023-05-09T01:29:35;101958.19;;;7.55;79.82
65997;BME280;52765;52.258;21.052;2023-05-09T01:32:06;101939.16;;;7.45;79.65
65997;BME280;52765;52.258;21.052;2023-05-09T01:34:33;101945.66;;;7.41;79.96
65997;BME280;52765;52.258;21.052;2023-05-09T01:37:00;101942.78;;;7.44;80.42
65997;BME280;52765;52.258;21.052;2023-05-09T01:39:29;101951.13;;;7.39;80.72
65997;BME280;52765;52.258;21.052;2023-05-09T01:41:59;101944.03;;;7.38;81.06
65997;BME280;52765;52.258;21.052;2023-05-09T01:44:32;101945.97;;;7.36;80.89
65997;BME280;52765;52.258;21.052;2023-05-09T01:46:59;101949.69;;;7.34;81.14
65997;BME280;52765;52.258;21.052;2023-05-09T01:49:28;101949.22;;;7.27;81.21
65997;BME280;52765;52.258;21.052;2023-05-09T01:51:55;101952.38;;;7.19;81.46
65997;BME280;52765;52.258;21.052;2023-05-09T01:54:22;101948.81;;;7.19;81.46
65997;BME280;52765;52.258;21.052;2023-05-09T01:56:50;101947.97;;;7.04;81.74
65997;BME280;52765;52.258;21.052;2023-05-09T01:59:17;101941.53;;;6.92;82.42
65997;BME280;52765;52.258;21.052;2023-05-09T02:01:44;101945.75;;;6.82;83.17
65997;BME280;52765;52.258;21.052;2023-05-09T02:04:14;101946.69;;;6.81;82.80
65997;BME280;52765;52.258;21.052;2023-05-09T02:06:41;101937.22;;;6.75;83.20
65997;BME280;52765;52.258;21.052;2023-05-09T02:09:09;101940.56;;;6.79;83.73
65997;BME280;52765;52.258;21.052;2023-05-09T02:11:35;101946.41;;;6.85;84.28
65997;BME280;52765;52.258;21.052;2023-05-09T02:14:01;101940.88;;;6.89;84.26
65997;BME280;52765;52.258;21.052;2023-05-09T02:16:26;101942.78;;;6.87;84.77
65997;BME280;52765;52.258;21.052;2023-05-09T02:18:52;101940.03;;;6.88;84.70
65997;BME280;52765;52.258;21.052;2023-05-09T02:21:18;101944.31;;;6.91;84.53
65997;BME280;52765;52.258;21.052;2023-05-09T02:23:43;101939.84;;;6.91;84.59
65997;BME280;52765;52.258;21.052;2023-05-09T02:26:09;101941.63;;;6.91;84.00
65997;BME280;52765;52.258;21.052;2023-05-09T02:28:35;101940.22;;;6.85;84.25
65997;BME280;52765;52.258;21.052;2023-05-09T02:31:04;101931.19;;;6.86;84.05
65997;BME280;52765;52.258;21.052;2023-05-09T02:33:32;101946.91;;;6.78;84.23
65997;BME280;52765;52.258;21.052;2023-05-09T02:35:59;101941.06;;;6.71;84.19
65997;BME280;52765;52.258;21.052;2023-05-09T02:38:25;101946.19;;;6.74;83.91
65997;BME280;52765;52.258;21.052;2023-05-09T02:40:51;101946.09;;;6.76;84.39
65997;BME280;52765;52.258;21.052;2023-05-09T02:43:17;101941.81;;;6.73;84.05
65997;BME280;52765;52.258;21.052;2023-05-09T02:45:42;101937.50;;;6.71;83.93
65997;BME280;52765;52.258;21.052;2023-05-09T02:48:08;101940.25;;;6.69;84.27
65997;BME280;52765;52.258;21.052;2023-05-09T02:50:33;101938.38;;;6.71;84.51
65997;BME280;52765;52.258;21.052;2023-05-09T02:52:59;101944.41;;;6.75;84.48
65997;BME280;52765;52.258;21.052;2023-05-09T02:55:27;101938.47;;;6.70;84.69
65997;BME280;52765;52.258;21.052;2023-05-09T02:57:53;101951.84;;;6.70;84.35
65997;BME280;52765;52.258;21.052;2023-05-09T03:00:19;101943.13;;;6.66;84.55
65997;BME280;52765;52.258;21.052;2023-05-09T03:02:45;101938.09;;;6.45;85.57
65997;BME280;52765;52.258;21.052;2023-05-09T03:05:11;101942.56;;;6.30;86.45
65997;BME280;52765;52.258;21.052;2023-05-09T03:07:36;101958.88;;;6.26;86.63
65997;BME280;52765;52.258;21.052;2023-05-09T03:10:05;101950.06;;;6.24;87.06
65997;BME280;52765;52.258;21.052;2023-05-09T03:12:31;101955.34;;;6.25;87.13
65997;BME280;52765;52.258;21.052;2023-05-09T03:14:56;101959.94;;;6.23;87.44
65997;BME280;52765;52.258;21.052;2023-05-09T03:17:22;101953.59;;;6.24;87.14
65997;BME280;52765;52.258;21.052;2023-05-09T03:19:47;101947.31;;;6.25;86.93
65997;BME280;52765;52.258;21.052;2023-05-09T03:22:13;101943.19;;;6.20;87.17
65997;BME280;52765;52.258;21.052;2023-05-09T03:24:39;101947.88;;;6.16;87.03
65997;BME280;52765;52.258;21.052;2023-05-09T03:27:04;101935.09;;;6.05;87.24
65997;BME280;52765;52.258;21.052;2023-05-09T03:29:30;101939.78;;;6.02;87.13
65997;BME280;52765;52.258;21.052;2023-05-09T03:31:55;101949.25;;;6.07;87.34
65997;BME280;52765;52.258;21.052;2023-05-09T03:34:20;101956.16;;;6.11;87.76
65997;BME280;52765;52.258;21.052;2023-05-09T03:36:46;101953.56;;;6.10;87.92
65997;BME280;52765;52.258;21.052;2023-05-09T03:39:11;101947.06;;;6.14;87.92
65997;BME280;52765;52.258;21.052;2023-05-09T03:41:37;101958.66;;;6.15;87.80
65997;BME280;52765;52.258;21.052;2023-05-09T03:44:04;101959.09;;;6.23;87.95
65997;BME280;52765;52.258;21.052;2023-05-09T03:46:30;101954.31;;;6.28;87.81
65997;BME280;52765;52.258;21.052;2023-05-09T03:48:55;101957.84;;;6.28;87.51
65997;BME280;52765;52.258;21.052;2023-05-09T03:51:20;101956.91;;;6.29;87.02
65997;BME280;52765;52.258;21.052;2023-05-09T03:53:48;101957.25;;;6.23;86.86
65997;BME280;52765;52.258;21.052;2023-05-09T03:56:14;101953.09;;;6.18;86.11
65997;BME280;52765;52.258;21.052;2023-05-09T03:58:39;101957.00;;;6.12;85.53
65997;BME280;52765;52.258;21.052;2023-05-09T04:01:05;101953.66;;;6.08;85.40
65997;BME280;52765;52.258;21.052;2023-05-09T04:03:31;101949.50;;;6.03;84.47
65997;BME280;52765;52.258;21.052;2023-05-09T04:05:56;101958.03;;;6.09;83.61
65997;BME280;52765;52.258;21.052;2023-05-09T04:08:22;101952.69;;;6.09;82.97
65997;BME280;52765;52.258;21.052;2023-05-09T04:10:48;101957.00;;;6.12;82.62
65997;BME280;52765;52.258;21.052;2023-05-09T04:13:14;101948.91;;;6.14;81.55
65997;BME280;52765;52.258;21.052;2023-05-09T04:15:40;101948.91;;;6.14;81.09
65997;BME280;52765;52.258;21.052;2023-05-09T04:18:06;101954.84;;;6.19;80.51
65997;BME280;52765;52.258;21.052;2023-05-09T04:20:31;101950.59;;;6.30;79.21
65997;BME280;52765;52.258;21.052;2023-05-09T04:22:57;101953.00;;;6.35;78.63
65997;BME280;52765;52.258;21.052;2023-05-09T04:25:23;101939.34;;;6.40;78.00
65997;BME280;52765;52.258;21.052;2023-05-09T04:27:49;101947.06;;;6.44;77.13
65997;BME280;52765;52.258;21.052;2023-05-09T04:30:14;101953.91;;;6.50;76.32
65997;BME280;52765;52.258;21.052;2023-05-09T04:32:40;101961.19;;;6.62;76.20
65997;BME280;52765;52.258;21.052;2023-05-09T04:35:10;101959.59;;;6.74;76.84
65997;BME280;52765;52.258;21.052;2023-05-09T04:37:36;101953.59;;;6.99;75.39
65997;BME280;52765;52.258;21.052;2023-05-09T04:40:02;101963.97;;;7.20;73.60
65997;BME280;52765;52.258;21.052;2023-05-09T04:42:28;101958.09;;;7.28;73.10
65997;BME280;52765;52.258;21.052;2023-05-09T04:44:54;101961.72;;;7.41;73.43
65997;BME280;52765;52.258;21.052;2023-05-09T04:47:20;101942.78;;;7.44;74.13
65997;BME280;52765;52.258;21.052;2023-05-09T04:49:45;101955.50;;;7.55;73.69
65997;BME280;52765;52.258;21.052;2023-05-09T04:52:10;101958.06;;;7.71;70.70
65997;BME280;52765;52.258;21.052;2023-05-09T04:54:36;101950.56;;;7.76;69.33
65997;BME280;52765;52.258;21.052;2023-05-09T04:57:01;101957.00;;;7.73;66.97
65997;BME280;52765;52.258;21.052;2023-05-09T04:59:28;101960.91;;;7.82;67.28
65997;BME280;52765;52.258;21.052;2023-05-09T05:01:54;101950.44;;;7.92;66.56
65997;BME280;52765;52.258;21.052;2023-05-09T05:04:19;101955.13;;;8.03;66.20
65997;BME280;52765;52.258;21.052;2023-05-09T05:06:45;101952.75;;;8.11;64.60
65997;BME280;52765;52.258;21.052;2023-05-09T05:09:10;101958.19;;;8.24;64.21
65997;BME280;52765;52.258;21.052;2023-05-09T05:11:36;101946.19;;;8.29;63.83
65997;BME280;52765;52.258;21.052;2023-05-09T05:14:01;101954.00;;;8.47;63.33
65997;BME280;52765;52.258;21.052;2023-05-09T05:16:26;101955.97;;;8.58;62.72
65997;BME280;52765;52.258;21.052;2023-05-09T05:18:52;101957.06;;;8.68;61.94
65997;BME280;52765;52.258;21.052;2023-05-09T05:21:17;101953.72;;;8.77;61.38
65997;BME280;52765;52.258;21.052;2023-05-09T05:23:43;101960.94;;;8.89;60.32
65997;BME280;52765;52.258;21.052;2023-05-09T05:26:08;101954.28;;;8.95;60.25
65997;BME280;52765;52.258;21.052;2023-05-09T05:28:33;101961.25;;;9.11;59.71
65997;BME280;52765;52.258;21.052;2023-05-09T05:30:59;101961.69;;;9.17;59.62
65997;BME280;52765;52.258;21.052;2023-05-09T05:33:25;101962.53;;;9.31;59.24
65997;BME280;52765;52.258;21.052;2023-05-09T05:35:50;101958.25;;;9.41;59.11
65997;BME280;52765;52.258;21.052;2023-05-09T05:38:16;101959.41;;;9.50;58.72
65997;BME280;52765;52.258;21.052;2023-05-09T05:40:41;101949.56;;;9.61;58.52
65997;BME280;52765;52.258;21.052;2023-05-09T05:43:06;101938.25;;;9.69;58.14
65997;BME280;52765;52.258;21.052;2023-05-09T05:45:32;101941.13;;;9.79;58.06
65997;BME280;52765;52.258;21.052;2023-05-09T05:47:57;101945.50;;;9.93;57.31
65997;BME280;52765;52.258;21.052;2023-05-09T05:50:23;101942.72;;;10.06;57.29
65997;BME280;52765;52.258;21.052;2023-05-09T05:52:48;101943.53;;;10.19;56.54
65997;BME280;52765;52.258;21.052;2023-05-09T05:55:13;101943.84;;;10.03;55.93
65997;BME280;52765;52.258;21.052;2023-05-09T05:57:39;101936.09;;;9.98;56.15
65997;BME280;52765;52.258;21.052;2023-05-09T06:00:05;101945.41;;;10.06;55.55
65997;BME280;52765;52.258;21.052;2023-05-09T06:02:41;101945.59;;;10.15;54.92
65997;BME280;52765;52.258;21.052;2023-05-09T06:05:12;101942.84;;;10.28;54.14
65997;BME280;52765;52.258;21.052;2023-05-09T06:07:37;101945.00;;;10.36;53.66
65997;BME280;52765;52.258;21.052;2023-05-09T06:10:06;101931.44;;;10.49;53.03
65997;BME280;52765;52.258;21.052;2023-05-09T06:12:31;101944.81;;;10.62;52.30
65997;BME280;52765;52.258;21.052;2023-05-09T06:14:57;101938.84;;;10.69;51.97
65997;BME280;52765;52.258;21.052;2023-05-09T06:17:22;101938.84;;;10.81;51.40
65997;BME280;52765;52.258;21.052;2023-05-09T06:19:48;101938.28;;;10.88;50.88
65997;BME280;52765;52.258;21.052;2023-05-09T06:22:13;101936.56;;;10.99;51.28
65997;BME280;52765;52.258;21.052;2023-05-09T06:24:39;101938.56;;;11.08;51.13
65997;BME280;52765;52.258;21.052;2023-05-09T06:27:04;101939.78;;;11.15;50.70
65997;BME280;52765;52.258;21.052;2023-05-09T06:29:30;101935.47;;;11.24;50.54
65997;BME280;52765;52.258;21.052;2023-05-09T06:31:55;101928.88;;;11.28;49.63
65997;BME280;52765;52.258;21.052;2023-05-09T06:34:20;101930.56;;;11.40;49.79
65997;BME280;52765;52.258;21.052;2023-05-09T06:36:46;101927.03;;;11.51;49.34
65997;BME280;52765;52.258;21.052;2023-05-09T06:39:11;101936.06;;;11.61;49.14
65997;BME280;52765;52.258;21.052;2023-05-09T06:41:37;101931.63;;;11.72;48.63
65997;BME280;52765;52.258;21.052;2023-05-09T06:44:03;101932.59;;;11.82;48.46
65997;BME280;52765;52.258;21.052;2023-05-09T06:46:28;101938.00;;;11.93;48.27
65997;BME280;52765;52.258;21.052;2023-05-09T06:48:54;101936.13;;;12.05;45.72
65997;BME280;52765;52.258;21.052;2023-05-09T06:51:22;101938.78;;;12.16;45.39
65997;BME280;52765;52.258;21.052;2023-05-09T06:53:47;101934.06;;;12.30;44.77
65997;BME280;52765;52.258;21.052;2023-05-09T06:56:13;101922.06;;;12.44;43.60
65997;BME280;52765;52.258;21.052;2023-05-09T06:58:38;101923.75;;;12.56;42.69
65997;BME280;52765;52.258;21.052;2023-05-09T07:01:04;101914.38;;;12.60;42.22
65997;BME280;52765;52.258;21.052;2023-05-09T07:03:29;101925.25;;;12.70;42.80
65997;BME280;52765;52.258;21.052;2023-05-09T07:05:55;101911.22;;;12.76;42.43
65997;BME280;52765;52.258;21.052;2023-05-09T07:08:23;101920.94;;;12.88;42.15
65997;BME280;52765;52.258;21.052;2023-05-09T07:10:49;101915.47;;;13.00;40.93
65997;BME280;52765;52.258;21.052;2023-05-09T07:13:14;101901.13;;;13.09;38.63
65997;BME280;52765;52.258;21.052;2023-05-09T07:15:40;101899.91;;;13.23;38.47
65997;BME280;52765;52.258;21.052;2023-05-09T07:18:06;101900.69;;;13.35;36.81
65997;BME280;52765;52.258;21.052;2023-05-09T07:20:31;101893.59;;;13.43;35.06
65997;BME280;52765;52.258;21.052;2023-05-09T07:22:57;101893.75;;;13.51;34.09
65997;BME280;52765;52.258;21.052;2023-05-09T07:25:22;101897.34;;;13.62;34.51
65997;BME280;52765;52.258;21.052;2023-05-09T07:27:48;101905.25;;;13.94;34.72
65997;BME280;52765;52.258;21.052;2023-05-09T07:30:13;101893.00;;;14.19;33.27
65997;BME280;52765;52.258;21.052;2023-05-09T07:32:39;101893.84;;;14.30;32.55
65997;BME280;52765;52.258;21.052;2023-05-09T07:35:04;101880.41;;;14.38;31.71
65997;BME280;52765;52.258;21.052;2023-05-09T07:37:30;101881.25;;;14.48;31.74
65997;BME280;52765;52.258;21.052;2023-05-09T07:39:56;101880.00;;;14.52;32.08
65997;BME280;52765;52.258;21.052;2023-05-09T07:42:21;101880.84;;;14.63;33.16
65997;BME280;52765;52.258;21.052;2023-05-09T07:44:47;101878.41;;;14.69;33.20
65997;BME280;52765;52.258;21.052;2023-05-09T07:47:13;101881.38;;;14.76;31.78
65997;BME280;52765;52.258;21.052;2023-05-09T07:49:38;101875.66;;;14.79;31.53
65997;BME280;52765;52.258;21.052;2023-05-09T07:52:04;101877.78;;;14.85;30.56
65997;BME280;52765;52.258;21.052;2023-05-09T07:54:30;101862.78;;;14.91;30.88
65997;BME280;52765;52.258;21.052;2023-05-09T07:56:55;101868.75;;;14.94;31.28
65997;BME280;52765;52.258;21.052;2023-05-09T07:59:21;101879.53;;;14.67;31.65
65997;BME280;52765;52.258;21.052;2023-05-09T08:01:46;101868.84;;;14.65;31.34
65997;BME280;52765;52.258;21.052;2023-05-09T08:04:11;101867.28;;;14.63;31.15
65997;BME280;52765;52.258;21.052;2023-05-09T08:06:37;101866.53;;;14.70;30.57
65997;BME280;52765;52.258;21.052;2023-05-09T08:09:02;101855.53;;;14.72;30.40
65997;BME280;52765;52.258;21.052;2023-05-09T08:11:31;101852.25;;;14.78;31.55
65997;BME280;52765;52.258;21.052;2023-05-09T08:13:56;101851.97;;;14.81;31.03
65997;BME280;52765;52.258;21.052;2023-05-09T08:16:22;101847.63;;;14.88;30.51
65997;BME280;52765;52.258;21.052;2023-05-09T08:18:47;101857.06;;;14.94;30.54
65997;BME280;52765;52.258;21.052;2023-05-09T08:21:13;101848.31;;;15.00;30.93
65997;BME280;52765;52.258;21.052;2023-05-09T08:23:38;101848.56;;;15.07;31.27
65997;BME280;52765;52.258;21.052;2023-05-09T08:26:05;101855.13;;;15.14;30.78
65997;BME280;52765;52.258;21.052;2023-05-09T08:28:30;101846.34;;;15.20;31.47
65997;BME280;52765;52.258;21.052;2023-05-09T08:30:56;101840.78;;;15.22;30.55
65997;BME280;52765;52.258;21.052;2023-05-09T08:33:22;101850.19;;;15.27;30.61
65997;BME280;52765;52.258;21.052;2023-05-09T08:35:54;101838.84;;;15.32;29.95
65997;BME280;52765;52.258;21.052;2023-05-09T08:38:20;101836.56;;;15.55;30.63
65997;BME280;52765;52.258;21.052;2023-05-09T08:40:46;101846.59;;;15.72;30.25
65997;BME280;52765;52.258;21.052;2023-05-09T08:43:14;101840.75;;;15.77;30.47
65997;BME280;52765;52.258;21.052;2023-05-09T08:45:46;101835.94;;;15.89;30.49
65997;BME280;52765;52.258;21.052;2023-05-09T08:48:14;101839.72;;;15.96;30.58
65997;BME280;52765;52.258;21.052;2023-05-09T08:50:41;101834.91;;;16.08;30.45
65997;BME280;52765;52.258;21.052;2023-05-09T08:53:07;101829.69;;;16.15;29.94
65997;BME280;52765;52.258;21.052;2023-05-09T08:55:33;101830.06;;;16.20;29.38
65997;BME280;52765;52.258;21.052;2023-05-09T08:57:59;101831.47;;;16.24;29.10
65997;BME280;52765;52.258;21.052;2023-05-09T09:00:25;101817.88;;;16.24;29.01
65997;BME280;52765;52.258;21.052;2023-05-09T09:02:51;101819.56;;;16.25;28.53
65997;BME280;52765;52.258;21.052;2023-05-09T09:05:18;101820.47;;;16.07;28.76
65997;BME280;52765;52.258;21.052;2023-05-09T09:07:45;101819.78;;;16.05;28.81
65997;BME280;52765;52.258;21.052;2023-05-09T09:10:10;101817.66;;;16.17;29.21
65997;BME280;52765;52.258;21.052;2023-05-09T09:12:38;101820.59;;;16.24;28.34
65997;BME280;52765;52.258;21.052;2023-05-09T09:15:04;101821.28;;;16.26;28.08
65997;BME280;52765;52.258;21.052;2023-05-09T09:17:31;101823.44;;;16.40;27.93
65997;BME280;52765;52.258;21.052;2023-05-09T09:19:59;101815.31;;;16.49;28.37
65997;BME280;52765;52.258;21.052;2023-05-09T09:22:33;101811.47;;;16.59;28.08
65997;BME280;52765;52.258;21.052;2023-05-09T09:25:00;101809.88;;;16.49;27.69
65997;BME280;52765;52.258;21.052;2023-05-09T09:27:27;101805.34;;;16.57;27.43
65997;BME280;52765;52.258;21.052;2023-05-09T09:29:53;101793.28;;;16.60;27.78
65997;BME280;52765;52.258;21.052;2023-05-09T09:32:18;101789.06;;;16.65;27.39
65997;BME280;52765;52.258;21.052;2023-05-09T09:34:48;101798.31;;;16.81;27.96
65997;BME280;52765;52.258;21.052;2023-05-09T09:37:21;101798.59;;;16.96;28.40
65997;BME280;52765;52.258;21.052;2023-05-09T09:39:54;101794.38;;;17.10;28.35
65997;BME280;52765;52.258;21.052;2023-05-09T09:42:20;101788.97;;;17.18;27.63
65997;BME280;52765;52.258;21.052;2023-05-09T09:44:55;101791.88;;;17.25;27.68
65997;BME280;52765;52.258;21.052;2023-05-09T09:47:30;101784.22;;;17.28;26.67
65997;BME280;52765;52.258;21.052;2023-05-09T09:49:56;101778.78;;;17.28;27.19
65997;BME280;52765;52.258;21.052;2023-05-09T09:52:23;101784.41;;;17.35;27.44
65997;BME280;52765;52.258;21.052;2023-05-09T09:54:54;101782.41;;;17.37;27.48
65997;BME280;52765;52.258;21.052;2023-05-09T09:57:34;101783.44;;;17.44;26.41
65997;BME280;52765;52.258;21.052;2023-05-09T10:00:05;101777.47;;;17.41;26.66
65997;BME280;52765;52.258;21.052;2023-05-09T10:02:30;101782.78;;;17.50;27.35
65997;BME280;52765;52.258;21.052;2023-05-09T10:05:05;101782.25;;;17.63;27.48
65997;BME280;52765;52.258;21.052;2023-05-09T10:07:32;101775.28;;;17.69;27.02
65997;BME280;52765;52.258;21.052;2023-05-09T10:09:58;101777.31;;;17.75;27.06
65997;BME280;52765;52.258;21.052;2023-05-09T10:12:23;101772.03;;;17.82;26.36
65997;BME280;52765;52.258;21.052;2023-05-09T10:14:49;101766.97;;;17.87;26.36
65997;BME280;52765;52.258;21.052;2023-05-09T10:17:14;101761.50;;;17.95;26.57
65997;BME280;52765;52.258;21.052;2023-05-09T10:19:44;101762.03;;;17.99;26.76
65997;BME280;52765;52.258;21.052;2023-05-09T10:22:13;101758.75;;;17.54;26.19
65997;BME280;52765;52.258;21.052;2023-05-09T10:27:11;101754.66;;;17.58;26.93
65997;BME280;52765;52.258;21.052;2023-05-09T10:29:41;101756.88;;;17.63;26.98
65997;BME280;52765;52.258;21.052;2023-05-09T10:32:17;101749.41;;;17.73;27.33
65997;BME280;52765;52.258;21.052;2023-05-09T10:34:48;101747.00;;;17.86;27.05
65997;BME280;52765;52.258;21.052;2023-05-09T10:37:14;101741.59;;;18.03;27.32
65997;BME280;52765;52.258;21.052;2023-05-09T10:39:40;101743.13;;;18.05;27.01
65997;BME280;52765;52.258;21.052;2023-05-09T10:42:09;101751.47;;;18.20;27.73
65997;BME280;52765;52.258;21.052;2023-05-09T10:44:36;101738.81;;;18.27;26.69
65997;BME280;52765;52.258;21.052;2023-05-09T10:47:01;101737.59;;;18.30;26.46
65997;BME280;52765;52.258;21.052;2023-05-09T10:49:28;101739.50;;;18.29;26.45
65997;BME280;52765;52.258;21.052;2023-05-09T10:51:54;101752.63;;;18.26;26.25
65997;BME280;52765;52.258;21.052;2023-05-09T10:54:29;101745.06;;;18.53;27.02
65997;BME280;52765;52.258;21.052;2023-05-09T10:56:59;101734.69;;;18.40;26.21
65997;BME280;52765;52.258;21.052;2023-05-09T10:59:41;101723.88;;;18.55;26.32
65997;BME280;52765;52.258;21.052;2023-05-09T11:02:12;101726.44;;;18.56;26.07
65997;BME280;52765;52.258;21.052;2023-05-09T11:04:38;101725.88;;;18.77;26.73
65997;BME280;52765;52.258;21.052;2023-05-09T11:09:52;101719.03;;;19.13;26.56
65997;BME280;52765;52.258;21.052;2023-05-09T11:12:31;101716.31;;;19.36;26.16
65997;BME280;52765;52.258;21.052;2023-05-09T11:15:06;101717.34;;;19.35;25.83
65997;BME280;52765;52.258;21.052;2023-05-09T11:17:37;101708.97;;;19.36;25.61
65997;BME280;52765;52.258;21.052;2023-05-09T11:20:04;101699.81;;;19.29;25.92
65997;BME280;52765;52.258;21.052;2023-05-09T11:22:38;101700.53;;;19.46;26.19
65997;BME280;52765;52.258;21.052;2023-05-09T11:25:11;101696.94;;;19.69;25.81
65997;BME280;52765;52.258;21.052;2023-05-09T11:27:46;101689.56;;;19.92;25.89
65997;BME280;52765;52.258;21.052;2023-05-09T11:30:18;101691.50;;;20.07;25.94
65997;BME280;52765;52.258;21.052;2023-05-09T11:32:53;101677.31;;;20.03;25.91
65997;BME280;52765;52.258;21.052;2023-05-09T11:35:22;101686.84;;;20.07;25.23
65997;BME280;52765;52.258;21.052;2023-05-09T11:38:03;101676.00;;;19.99;25.28
65997;BME280;52765;52.258;21.052;2023-05-09T11:40:31;101681.56;;;20.06;25.28
65997;BME280;52765;52.258;21.052;2023-05-09T11:43:00;101670.53;;;20.14;25.52
65997;BME280;52765;52.258;21.052;2023-05-09T11:45:32;101663.91;;;20.08;25.66
65997;BME280;52765;52.258;21.052;2023-05-09T11:47:59;101653.38;;;20.05;25.53
65997;BME280;52765;52.258;21.052;2023-05-09T11:50:28;101656.31;;;20.19;26.04
65997;BME280;52765;52.258;21.052;2023-05-09T11:52:57;101646.19;;;20.49;24.71
65997;BME280;52765;52.258;21.052;2023-05-09T11:55:25;101644.47;;;20.63;24.58
65997;BME280;52765;52.258;21.052;2023-05-09T11:57:55;101636.63;;;20.75;24.79
65997;BME280;52765;52.258;21.052;2023-05-09T12:00:24;101638.28;;;21.12;24.50
65997;BME280;52765;52.258;21.052;2023-05-09T12:02:52;101627.19;;;21.20;24.20
65997;BME280;52765;52.258;21.052;2023-05-09T12:05:21;101624.00;;;21.17;24.25
65997;BME280;52765;52.258;21.052;2023-05-09T12:07:48;101633.19;;;21.31;24.33
65997;BME280;52765;52.258;21.052;2023-05-09T12:10:19;101635.94;;;21.31;24.14
65997;BME280;52765;52.258;21.052;2023-05-09T12:12:51;101632.22;;;21.38;23.74
65997;BME280;52765;52.258;21.052;2023-05-09T12:15:20;101630.13;;;21.62;23.85
65997;BME280;52765;52.258;21.052;2023-05-09T12:18:03;101622.53;;;21.92;23.78
65997;BME280;52765;52.258;21.052;2023-05-09T12:20:48;101615.00;;;22.08;23.11
65997;BME280;52765;52.258;21.052;2023-05-09T12:23:18;101601.97;;;22.16;23.41
65997;BME280;52765;52.258;21.052;2023-05-09T12:25:52;101594.94;;;22.42;23.24
65997;BME280;52765;52.258;21.052;2023-05-09T12:28:24;101608.06;;;22.47;23.51
65997;BME280;52765;52.258;21.052;2023-05-09T12:30:52;101605.53;;;22.52;23.34
65997;BME280;52765;52.258;21.052;2023-05-09T12:33:20;101599.03;;;22.66;23.59
65997;BME280;52765;52.258;21.052;2023-05-09T12:36:07;101597.81;;;22.89;23.30
65997;BME280;52765;52.258;21.052;2023-05-09T12:38:37;101591.72;;;22.94;22.93
65997;BME280;52765;52.258;21.052;2023-05-09T12:41:07;101589.19;;;23.05;22.90
65997;BME280;52765;52.258;21.052;2023-05-09T12:43:36;101591.50;;;23.02;22.62
65997;BME280;52765;52.258;21.052;2023-05-09T12:46:04;101586.41;;;22.92;22.56
65997;BME280;52765;52.258;21.052;2023-05-09T12:48:38;101582.38;;;22.81;23.31
65997;BME280;52765;52.258;21.052;2023-05-09T12:51:07;101583.66;;;22.92;22.99
65997;BME280;52765;52.258;21.052;2023-05-09T12:53:39;101574.59;;;22.98;22.48
65997;BME280;52765;52.258;21.052;2023-05-09T12:56:20;101565.53;;;23.24;22.36
65997;BME280;52765;52.258;21.052;2023-05-09T12:58:53;101564.69;;;23.37;22.86
65997;BME280;52765;52.258;21.052;2023-05-09T13:01:21;101561.13;;;22.35;22.19